createdAt,value
2019-04-06T00:00:39.495Z,15.60
2019-04-06T00:03:07.928Z,16.40
2019-04-06T00:05:36.448Z,15.17
2019-04-06T00:08:05.119Z,14.53
2019-04-06T00:10:33.549Z,14.60
2019-04-06T00:13:02.053Z,15.10
2019-04-06T00:15:30.371Z,14.67
2019-04-06T00:17:58.741Z,14.73
2019-04-06T00:20:27.153Z,15.43
2019-04-06T00:22:55.516Z,15.43
2019-04-06T00:25:24.090Z,14.63
2019-04-06T00:27:52.474Z,14.87
2019-04-06T00:30:20.965Z,14.67
2019-04-06T00:32:59.506Z,15.27
2019-04-06T00:35:27.949Z,16.30
2019-04-06T00:37:56.333Z,16.03
2019-04-06T00:40:24.745Z,16.43
2019-04-06T00:42:53.101Z,16.67
2019-04-06T00:45:21.745Z,16.70
2019-04-06T00:47:50.141Z,15.73
2019-04-06T00:50:18.676Z,14.80
2019-04-06T00:52:46.985Z,15.20
2019-04-06T00:55:15.380Z,14.13
2019-04-06T00:57:43.826Z,13.73
2019-04-06T01:00:12.636Z,13.67
2019-04-06T01:02:41.020Z,13.93
2019-04-06T01:05:09.485Z,13.23
2019-04-06T01:07:37.977Z,12.53
2019-04-06T01:10:06.455Z,13.87
2019-04-06T01:12:34.855Z,13.67
2019-04-06T01:15:03.633Z,14.50
2019-04-06T01:17:32.077Z,13.63
2019-04-06T01:20:00.485Z,13.43
2019-04-06T01:22:28.872Z,13.77
2019-04-06T01:24:57.214Z,12.97
2019-04-06T01:27:25.589Z,13.03
2019-04-06T01:29:54.041Z,13.37
2019-04-06T01:32:22.536Z,11.90
2019-04-06T01:34:50.934Z,13.37
2019-04-06T01:37:19.248Z,13.40
2019-04-06T01:39:47.573Z,13.80
2019-04-06T01:42:16.023Z,12.10
2019-04-06T01:44:44.379Z,12.47
2019-04-06T01:47:12.732Z,14.30
2019-04-06T01:49:41.120Z,13.20
2019-04-06T01:52:09.492Z,12.20
2019-04-06T01:54:37.831Z,11.33
2019-04-06T01:57:06.295Z,12.77
2019-04-06T01:59:34.665Z,11.80
2019-04-06T02:02:10.564Z,11.63
2019-04-06T02:04:39.071Z,12.63
2019-04-06T02:07:07.612Z,13.37
2019-04-06T02:16:18.076Z,11.30
2019-04-06T02:19:16.928Z,12.00
2019-04-06T02:22:15.672Z,11.33
2019-04-06T02:25:17.538Z,12.27
2019-04-06T02:42:16.000Z,12.73
2019-04-06T02:45:17.950Z,12.47
2019-04-06T03:01:16.951Z,12.90
2019-04-06T03:10:18.529Z,12.20
2019-04-06T03:15:33.072Z,13.40
2019-04-06T03:18:16.729Z,13.87
2019-04-06T03:21:18.509Z,12.60
2019-04-06T03:24:17.332Z,12.37
2019-04-06T03:27:16.152Z,12.77
2019-04-06T03:30:17.961Z,12.13
2019-04-06T03:33:16.410Z,13.80
2019-04-06T03:36:14.868Z,12.00
2019-04-06T03:39:16.457Z,13.93
2019-04-06T03:42:18.254Z,12.90
2019-04-06T03:45:17.285Z,13.10
2019-04-06T03:48:16.037Z,13.93
2019-04-06T03:51:17.860Z,13.27
2019-04-06T03:54:18.354Z,13.40
2019-04-06T03:57:17.276Z,13.33
2019-04-06T04:00:16.321Z,14.30
2019-04-06T04:03:17.740Z,13.37
2019-04-06T04:06:16.620Z,14.23
2019-04-06T04:09:18.314Z,13.60
2019-04-06T04:12:18.637Z,13.73
2019-04-06T04:15:17.290Z,13.63
2019-04-06T04:18:16.434Z,13.63
2019-04-06T04:21:17.954Z,12.33
2019-04-06T04:24:16.802Z,14.00
2019-04-06T04:27:27.697Z,13.57
2019-04-06T04:30:30.745Z,14.10
2019-04-06T04:33:16.424Z,13.63
2019-04-06T04:35:44.824Z,14.83
2019-04-06T04:38:19.106Z,14.67
2019-04-06T04:41:17.580Z,14.70
2019-04-06T04:44:15.628Z,14.00
2019-04-06T04:46:44.536Z,13.83
2019-04-06T04:49:18.956Z,14.57
2019-04-06T04:51:47.684Z,13.33
2019-04-06T04:54:16.140Z,14.50
2019-04-06T04:56:44.527Z,14.83
2019-04-06T04:59:15.932Z,13.53
2019-04-06T05:01:44.311Z,14.07
2019-04-06T05:04:18.608Z,14.87
2019-04-06T05:06:46.975Z,15.60
2019-04-06T05:09:18.553Z,13.33
2019-04-06T05:11:48.953Z,15.13
2019-04-06T05:14:53.198Z,14.60
2019-04-06T05:17:21.530Z,14.50
2019-04-06T05:19:49.859Z,12.97
2019-04-06T05:22:18.297Z,14.80
2019-04-06T05:24:46.757Z,14.00
2019-04-06T05:27:15.221Z,14.27
2019-04-06T05:29:43.578Z,14.60
2019-04-06T05:32:12.152Z,13.67
2019-04-06T05:34:40.450Z,14.03
2019-04-06T05:37:08.790Z,14.57
2019-04-06T05:39:37.758Z,15.33
2019-04-06T05:42:06.210Z,15.20
2019-04-06T05:44:34.510Z,15.80
2019-04-06T05:47:03.034Z,15.53
2019-04-06T05:49:31.370Z,16.50
2019-04-06T05:52:01.721Z,15.00
2019-04-06T05:54:30.092Z,15.53
2019-04-06T05:56:58.365Z,14.40
2019-04-06T05:59:26.660Z,15.20
2019-04-06T06:01:55.058Z,15.30
2019-04-06T06:04:23.354Z,15.10
2019-04-06T06:06:51.714Z,15.67
2019-04-06T06:09:20.117Z,15.23
2019-04-06T06:11:48.610Z,15.50
2019-04-06T06:14:16.986Z,15.70
2019-04-06T06:16:45.328Z,17.33
2019-04-06T06:19:13.625Z,17.50
2019-04-06T06:21:42.087Z,18.30
2019-04-06T06:24:10.518Z,17.20
2019-04-06T06:26:38.853Z,17.57
2019-04-06T06:29:07.324Z,18.00
2019-04-06T06:31:35.665Z,17.47
2019-04-06T06:34:04.067Z,18.00
2019-04-06T06:36:32.434Z,18.30
2019-04-06T06:39:00.845Z,18.27
2019-04-06T06:41:28.964Z,17.93
2019-04-06T06:43:57.312Z,19.33
2019-04-06T06:46:25.743Z,17.83
2019-04-06T06:48:54.084Z,18.90
2019-04-06T06:51:22.672Z,18.27
2019-04-06T06:53:51.021Z,18.57
2019-04-06T06:56:19.347Z,20.60
2019-04-06T06:58:47.829Z,18.67
2019-04-06T07:01:16.196Z,18.73
2019-04-06T07:03:44.566Z,18.77
2019-04-06T07:06:12.952Z,18.57
2019-04-06T07:08:41.453Z,17.37
2019-04-06T07:11:09.690Z,18.57
2019-04-06T07:13:38.111Z,19.40
2019-04-06T07:16:06.562Z,18.90
2019-04-06T07:18:34.943Z,19.50
2019-04-06T07:21:03.306Z,20.30
2019-04-06T07:23:31.605Z,20.97
2019-04-06T07:25:59.932Z,20.60
2019-04-06T07:28:37.864Z,20.00
2019-04-06T07:30:58.314Z,19.27
2019-04-06T07:33:26.704Z,19.63
2019-04-06T07:35:55.068Z,21.03
2019-04-06T07:38:23.467Z,21.17
2019-04-06T07:40:51.839Z,21.30
2019-04-06T07:43:20.355Z,19.03
2019-04-06T07:45:48.655Z,19.70
2019-04-06T07:48:17.137Z,19.93
2019-04-06T07:50:46.113Z,19.53
2019-04-06T07:53:14.586Z,20.03
2019-04-06T07:55:42.951Z,19.70
2019-04-06T07:58:11.659Z,19.50
2019-04-06T08:00:40.000Z,19.27
2019-04-06T08:03:08.392Z,19.77
2019-04-06T08:05:36.906Z,21.70
2019-04-06T08:08:05.219Z,20.50
2019-04-06T08:10:33.724Z,19.77
2019-04-06T08:13:02.121Z,20.17
2019-04-06T08:15:30.513Z,19.97
2019-04-06T08:17:58.892Z,19.90
2019-04-06T08:20:27.206Z,20.20
2019-04-06T08:22:55.515Z,21.50
2019-04-06T08:25:23.841Z,20.13
2019-04-06T08:27:52.819Z,20.87
2019-04-06T08:30:21.236Z,20.67
2019-04-06T08:32:49.685Z,19.17
2019-04-06T08:35:25.098Z,19.03
2019-04-06T08:37:48.275Z,21.00
2019-04-06T08:40:16.688Z,20.40
2019-04-06T08:42:45.286Z,21.03
2019-04-06T08:45:14.238Z,21.63
2019-04-06T08:47:43.006Z,21.73
2019-04-06T08:50:11.569Z,21.70
2019-04-06T08:52:40.259Z,22.53
2019-04-06T08:55:08.648Z,23.60
2019-04-06T08:57:37.059Z,22.73
2019-04-06T09:00:07.365Z,23.57
2019-04-06T09:02:36.268Z,22.93
2019-04-06T09:05:06.459Z,23.80
2019-04-06T09:07:35.052Z,23.53
2019-04-06T09:10:05.039Z,22.67
2019-04-06T09:12:33.539Z,24.00
2019-04-06T09:15:02.025Z,23.13
2019-04-06T09:17:30.324Z,22.93
2019-04-06T09:19:58.799Z,23.70
2019-04-06T09:22:27.155Z,23.90
2019-04-06T09:24:55.616Z,24.00
2019-04-06T09:27:23.981Z,23.20
2019-04-06T09:29:52.379Z,24.37
2019-04-06T09:32:21.053Z,25.10
2019-04-06T09:34:49.724Z,23.87
2019-04-06T09:37:18.192Z,24.87
2019-04-06T09:39:46.987Z,23.33
2019-04-06T09:42:15.361Z,24.30
2019-04-06T09:44:47.005Z,24.20
2019-04-06T09:47:28.283Z,27.10
2019-04-06T09:49:57.854Z,24.90
2019-04-06T09:52:43.234Z,25.70
2019-04-06T09:55:13.220Z,25.30
2019-04-06T09:58:01.774Z,24.63
2019-04-06T10:00:37.485Z,24.50
2019-04-06T10:03:23.841Z,24.30
2019-04-06T10:05:56.517Z,24.70
2019-04-06T10:08:33.418Z,24.47
2019-04-06T10:11:19.673Z,25.20
2019-04-06T10:14:06.518Z,23.20
2019-04-06T10:16:39.537Z,24.77
2019-04-06T10:19:26.071Z,25.87
2019-04-06T10:22:05.170Z,25.23
2019-04-06T10:24:47.706Z,25.80
2019-04-06T10:27:36.433Z,25.37
2019-04-06T10:30:14.612Z,27.30
2019-04-06T10:32:47.423Z,24.60
2019-04-06T10:35:17.810Z,24.13
2019-04-06T10:38:03.733Z,24.17
2019-04-06T10:40:36.487Z,25.03
2019-04-06T10:43:10.111Z,27.10
2019-04-06T10:45:56.428Z,22.80
2019-04-06T10:48:32.554Z,22.60
2019-04-06T10:51:05.964Z,24.30
2019-04-06T10:53:52.552Z,23.97
2019-04-06T10:56:22.542Z,25.30
2019-04-06T10:59:07.686Z,25.13
2019-04-06T11:01:54.191Z,23.57
2019-04-06T11:04:24.291Z,24.60
2019-04-06T11:06:57.052Z,25.33
2019-04-06T11:09:32.921Z,23.63
2019-04-06T11:12:03.202Z,24.10
2019-04-06T11:14:39.181Z,23.43
2019-04-06T11:17:24.963Z,19.50
2019-04-06T11:19:55.481Z,17.40
2019-04-06T11:22:25.542Z,16.17
2019-04-06T11:25:10.890Z,15.27
2019-04-06T11:27:49.900Z,13.90
2019-04-06T11:30:22.903Z,15.17
2019-04-06T11:33:02.208Z,17.83
2019-04-06T11:35:40.790Z,16.40
2019-04-06T11:38:16.590Z,14.10
2019-04-06T11:41:03.059Z,14.10
2019-04-06T11:43:41.887Z,14.10
2019-04-06T11:46:20.931Z,15.30
2019-04-06T11:48:50.986Z,14.43
2019-04-06T11:51:37.611Z,13.40
2019-04-06T11:54:23.975Z,15.10
2019-04-06T11:57:10.093Z,13.47
2019-04-06T11:59:46.107Z,15.30
2019-04-06T12:02:25.653Z,15.23
2019-04-06T12:05:04.749Z,14.97
2019-04-06T12:07:46.834Z,13.93
2019-04-06T12:10:19.812Z,15.87
2019-04-06T12:13:02.314Z,14.30
2019-04-06T12:15:44.703Z,13.00
2019-04-06T12:18:17.476Z,14.00
2019-04-06T12:20:52.069Z,14.07
2019-04-06T12:23:38.785Z,14.60
2019-04-06T12:26:08.783Z,13.43
2019-04-06T12:28:50.986Z,14.13
2019-04-06T12:31:37.570Z,13.73
2019-04-06T12:34:16.428Z,14.77
2019-04-06T12:36:58.463Z,14.20
2019-04-06T12:39:28.424Z,14.57
2019-04-06T12:42:10.594Z,13.77
2019-04-06T12:44:40.624Z,14.70
2019-04-06T12:47:26.955Z,13.17
2019-04-06T12:50:09.088Z,14.40
2019-04-06T12:52:55.543Z,14.07
2019-04-06T12:55:26.499Z,14.17
2019-04-06T12:58:12.241Z,15.70
2019-04-06T13:00:54.518Z,14.63
2019-04-06T13:03:24.552Z,15.00
2019-04-06T13:06:11.213Z,15.40
2019-04-06T13:08:50.345Z,14.20
2019-04-06T13:11:20.324Z,13.93
2019-04-06T13:13:56.226Z,14.63
2019-04-06T13:16:32.017Z,14.50
2019-04-06T13:19:20.371Z,14.67
2019-04-06T13:21:56.443Z,14.63
2019-04-06T13:24:32.262Z,15.27
2019-04-06T13:27:02.342Z,14.60
2019-04-06T13:29:41.164Z,14.20
2019-04-06T13:32:26.207Z,14.30
2019-04-06T13:34:56.166Z,15.17
2019-04-06T13:37:38.094Z,14.00
2019-04-06T13:40:12.486Z,15.70
2019-04-06T13:42:57.286Z,13.83
2019-04-06T13:45:33.076Z,15.83
2019-04-06T13:48:14.874Z,14.87
2019-04-06T13:50:53.739Z,14.60
2019-04-06T13:53:23.690Z,14.13
2019-04-06T13:56:10.128Z,14.30
2019-04-06T13:58:40.129Z,14.73
2019-04-06T14:01:25.501Z,14.40
2019-04-06T14:04:01.613Z,15.27
2019-04-06T14:06:48.093Z,14.93
2019-04-06T14:09:23.930Z,14.90
2019-04-06T14:11:53.916Z,13.10
2019-04-06T14:14:43.535Z,14.07
2019-04-06T14:17:13.701Z,14.27
2019-04-06T14:19:49.714Z,13.47
2019-04-06T14:22:28.803Z,14.20
2019-04-06T14:25:07.729Z,14.43
2019-04-06T14:27:52.861Z,15.17
2019-04-06T14:30:38.788Z,14.93
2019-04-06T14:33:25.390Z,14.37
2019-04-06T14:36:10.971Z,13.70
2019-04-06T14:38:58.926Z,14.73
2019-04-06T14:41:35.313Z,14.43
2019-04-06T14:44:05.752Z,14.60
2019-04-06T14:46:35.887Z,14.77
2019-04-06T14:49:27.637Z,14.40
2019-04-06T14:51:50.393Z,14.63
2019-04-06T14:54:20.365Z,14.40
2019-04-06T14:57:06.946Z,15.40
2019-04-06T14:59:48.829Z,15.83
2019-04-06T15:02:24.810Z,15.47
2019-04-06T15:04:54.770Z,15.13
2019-04-06T15:07:36.965Z,15.10
2019-04-06T15:10:24.143Z,13.73
2019-04-06T15:13:10.987Z,13.80
2019-04-06T15:15:57.082Z,13.60
2019-04-06T15:18:43.085Z,14.17
2019-04-06T15:21:13.091Z,13.50
2019-04-06T15:23:43.136Z,14.83
2019-04-06T15:26:19.516Z,14.40
2019-04-06T15:28:53.014Z,13.93
2019-04-06T15:31:29.017Z,14.10
2019-04-06T15:34:05.292Z,14.00
2019-04-06T15:36:35.516Z,15.60
2019-04-06T15:39:10.736Z,14.30
2019-04-06T15:41:57.464Z,13.20
2019-04-06T15:44:40.548Z,14.10
2019-04-06T15:47:22.546Z,14.40
2019-04-06T15:49:58.630Z,14.73
2019-04-06T15:52:44.598Z,14.00
2019-04-06T15:55:31.157Z,14.13
2019-04-06T15:58:18.176Z,13.27
2019-04-06T16:00:48.485Z,13.30
2019-04-06T16:03:21.422Z,14.00
2019-04-06T16:05:58.205Z,13.77
2019-04-06T16:08:44.589Z,12.30
2019-04-06T16:11:20.806Z,13.27
2019-04-06T16:13:51.056Z,13.60
2019-04-06T16:16:21.166Z,12.43
2019-04-06T16:19:00.146Z,13.30
2019-04-06T16:21:42.125Z,12.70
2019-04-06T16:24:21.867Z,13.00
2019-04-06T16:26:55.192Z,12.60
2019-04-06T16:29:25.158Z,12.43
2019-04-06T16:31:55.129Z,11.50
2019-04-06T16:34:28.048Z,12.00
2019-04-06T16:37:12.074Z,12.60
2019-04-06T16:39:56.329Z,12.40
2019-04-06T16:42:43.036Z,12.90
2019-04-06T16:45:30.431Z,12.37
2019-04-06T16:48:20.320Z,13.53
2019-04-06T16:50:52.370Z,12.60
2019-04-06T16:53:26.893Z,12.67
2019-04-06T16:56:10.733Z,12.80
2019-04-06T16:58:57.252Z,13.00
2019-04-06T17:01:29.817Z,12.60
2019-04-06T17:04:08.244Z,12.50
2019-04-06T17:06:43.337Z,13.17
2019-04-06T17:09:34.800Z,12.37
2019-04-06T17:12:18.831Z,11.77
2019-04-06T17:14:56.247Z,12.23
2019-04-06T17:17:34.073Z,12.80
2019-04-06T17:20:08.240Z,12.40
2019-04-06T17:22:52.679Z,12.57
2019-04-06T17:25:27.128Z,13.60
2019-04-06T17:28:02.276Z,11.90
2019-04-06T17:30:36.386Z,12.50
2019-04-06T17:33:08.251Z,12.50
2019-04-06T17:35:39.495Z,13.80
2019-04-06T17:38:23.826Z,12.97
2019-04-06T17:41:10.356Z,13.00
2019-04-06T17:43:41.893Z,13.10
2019-04-06T17:46:13.059Z,12.40
2019-04-06T17:49:01.103Z,12.97
2019-04-06T17:51:39.402Z,12.60
2019-04-06T17:54:29.200Z,13.50
2019-04-06T17:57:09.652Z,12.90
2019-04-06T17:59:56.448Z,13.13
2019-04-06T18:02:27.591Z,14.07
2019-04-06T18:05:00.072Z,13.93
2019-04-06T18:07:33.846Z,15.17
2019-04-06T18:10:20.938Z,20.10
2019-04-06T18:12:52.790Z,19.20
2019-04-06T18:15:23.839Z,19.63
2019-04-06T18:17:54.960Z,21.07
2019-04-06T18:20:25.218Z,19.23
2019-04-06T18:22:55.642Z,18.73
2019-04-06T18:25:25.363Z,19.00
2019-04-06T18:27:55.542Z,19.00
2019-04-06T18:30:25.166Z,19.30
2019-04-06T18:33:01.267Z,18.57
2019-04-06T18:35:29.148Z,21.10
2019-04-06T18:38:00.591Z,20.70
2019-04-06T18:40:31.028Z,19.40
2019-04-06T18:43:00.965Z,18.00
2019-04-06T18:45:32.937Z,20.57
2019-04-06T18:48:03.405Z,23.10
2019-04-06T18:50:37.993Z,23.47
2019-04-06T18:53:06.932Z,21.93
2019-04-06T18:55:37.090Z,21.20
2019-04-06T18:58:11.224Z,19.83
2019-04-06T19:00:39.351Z,18.87
2019-04-06T19:03:14.730Z,18.07
2019-04-06T19:05:40.920Z,16.80
2019-04-06T19:08:11.053Z,17.80
2019-04-06T19:10:41.783Z,18.30
2019-04-06T19:13:12.365Z,18.77
2019-04-06T19:15:43.339Z,21.40
2019-04-06T19:18:13.491Z,21.10
2019-04-06T19:20:44.167Z,19.40
2019-04-06T19:23:13.627Z,19.00
2019-04-06T19:25:56.737Z,20.47
2019-04-06T19:28:27.965Z,19.73
2019-04-06T19:30:57.964Z,19.83
2019-04-06T19:33:28.378Z,17.73
2019-04-06T19:35:57.500Z,19.50
2019-04-06T19:38:28.865Z,18.30
2019-04-06T19:41:00.228Z,18.93
2019-04-06T19:43:31.257Z,17.90
2019-04-06T19:46:01.292Z,19.10
2019-04-06T19:48:30.084Z,18.03
2019-04-06T19:51:00.109Z,19.63
2019-04-06T19:53:33.290Z,18.97
2019-04-06T19:56:03.901Z,18.37
2019-04-06T19:58:34.670Z,18.77
2019-04-06T20:01:03.163Z,18.57
2019-04-06T20:03:37.362Z,18.00
2019-04-06T20:06:06.624Z,18.63
2019-04-06T20:08:37.270Z,19.50
2019-04-06T20:11:07.951Z,18.50
2019-04-06T20:13:38.221Z,20.20
2019-04-06T20:16:08.760Z,18.47
2019-04-06T20:18:45.274Z,19.00
2019-04-06T20:21:14.278Z,19.47
2019-04-06T20:23:44.739Z,19.20
2019-04-06T20:26:16.327Z,18.67
2019-04-06T20:28:46.939Z,20.27
2019-04-06T20:31:17.554Z,20.50
2019-04-06T20:33:51.661Z,21.03
2019-04-06T20:36:19.461Z,20.80
2019-04-06T20:38:49.694Z,19.83
2019-04-06T20:41:19.988Z,20.80
2019-04-06T20:43:50.729Z,21.90
2019-04-06T20:46:20.800Z,20.73
2019-04-06T20:48:51.173Z,20.57
2019-04-06T20:51:25.083Z,19.10
2019-04-06T20:53:55.145Z,19.97
2019-04-06T20:56:24.276Z,19.70
2019-04-06T20:58:54.878Z,19.80
2019-04-06T21:01:24.765Z,20.60
2019-04-06T21:04:01.499Z,21.63
2019-04-06T21:06:26.897Z,20.47
2019-04-06T21:08:57.455Z,20.67
2019-04-06T21:11:27.668Z,21.93
2019-04-06T21:13:58.327Z,22.57
2019-04-06T21:16:28.912Z,21.40
2019-04-06T21:18:59.103Z,21.40
2019-04-06T21:21:30.804Z,22.80
2019-04-06T21:24:01.595Z,21.97
2019-04-06T21:26:32.527Z,21.97
2019-04-06T21:29:02.626Z,21.17
2019-04-06T21:31:34.216Z,21.07
2019-04-06T21:34:10.388Z,21.73
2019-04-06T21:36:36.665Z,19.90
2019-04-06T21:39:09.753Z,21.23
2019-04-06T21:41:40.705Z,20.10
2019-04-06T21:44:11.457Z,20.57
2019-04-06T21:46:42.070Z,20.60
2019-04-06T21:49:12.275Z,20.97
2019-04-06T21:51:42.372Z,21.37
2019-04-06T21:54:12.599Z,20.60
2019-04-06T21:56:43.385Z,21.10
2019-04-06T21:59:16.082Z,19.67
2019-04-06T22:01:46.867Z,21.00
2019-04-06T22:04:23.585Z,20.03
2019-04-06T22:06:49.124Z,20.53
2019-04-06T22:09:20.030Z,20.30
2019-04-06T22:11:52.450Z,19.90
2019-04-06T22:14:23.899Z,20.87
2019-04-06T22:16:56.081Z,21.63
2019-04-06T22:19:26.850Z,19.40
2019-04-06T22:21:57.670Z,21.30
2019-04-06T22:24:27.787Z,21.33
2019-04-06T22:26:58.714Z,20.43
2019-04-06T22:29:29.010Z,19.30
2019-04-06T22:31:59.600Z,19.67
2019-04-06T22:34:38.842Z,20.93
2019-04-06T22:37:01.676Z,20.43
2019-04-06T22:39:32.683Z,21.40
2019-04-06T22:42:02.408Z,19.93
2019-04-06T22:44:33.294Z,20.43
2019-04-06T22:47:03.548Z,21.40
2019-04-06T22:49:33.881Z,20.30
2019-04-06T22:52:04.325Z,20.70
2019-04-06T22:54:34.551Z,20.47
2019-04-06T22:57:04.731Z,19.97
2019-04-06T22:59:35.045Z,21.47
2019-04-06T23:02:05.537Z,22.47
2019-04-06T23:04:54.756Z,21.90
2019-04-06T23:07:26.196Z,22.40
2019-04-06T23:09:54.824Z,22.00
2019-04-06T23:12:23.468Z,21.57
2019-04-06T23:14:52.189Z,23.83
2019-04-06T23:17:20.535Z,23.40
2019-04-06T23:19:49.642Z,23.70
2019-04-06T23:22:18.659Z,22.50
2019-04-06T23:24:47.090Z,24.07
2019-04-06T23:27:16.966Z,27.07
2019-04-06T23:29:45.754Z,28.00
2019-04-06T23:32:14.866Z,24.70
2019-04-06T23:34:43.369Z,26.33
2019-04-06T23:37:11.849Z,24.03
2019-04-06T23:39:41.233Z,22.00
2019-04-06T23:42:10.209Z,23.10
2019-04-06T23:44:38.675Z,21.83
2019-04-06T23:47:06.992Z,21.97
2019-04-06T23:49:35.600Z,21.50
2019-04-06T23:52:03.945Z,22.07
2019-04-06T23:54:32.332Z,22.60
2019-04-06T23:57:00.842Z,22.17
2019-04-06T23:59:29.217Z,23.33
